Terminal Aerodrome Forecast
Issued by NWS

Home | Current Version | Previous Version | Text Only | Print | Product List | Glossary Off
Versions: 1 2 3 4 5 6 7 8 9 10 11 12 13 14 15 16 17 18 19 20

000
FTUS43 KGRB 240746 AAA
TAFATW
TAF AMD
KATW 240746Z 2408/2506 02015G26KT 2SM -SN BKN008 OVC015
      TEMPO 2408/2412 1/2SM SN VV004
     FM241200 03017G28KT 3/4SM -SN OVC008
     FM241400 03018G30KT 2SM -SNPL BR OVC010
     FM241900 03019G30KT 1SM -SN BR OVC008
     FM242300 36015G27KT 1 1/2SM -SN BLSN OVC012=

USA.gov is the U.S. government's official web portal to all federal, state and local government web resources and services.